createdAt,value
2022-11-16T00:02:14.787Z,15.68
2022-11-16T00:04:42.026Z,15.30
2022-11-16T00:07:09.133Z,14.70
2022-11-16T00:09:36.039Z,15.10
2022-11-16T00:12:06.142Z,15.38
2022-11-16T00:14:35.001Z,16.13
2022-11-16T00:17:02.258Z,16.02
2022-11-16T00:19:29.613Z,16.50
2022-11-16T00:21:56.238Z,15.60
2022-11-16T00:24:23.791Z,15.13
2022-11-16T00:26:51.170Z,17.00
2022-11-16T00:29:22.081Z,16.10
2022-11-16T00:31:49.828Z,16.20
2022-11-16T00:34:17.310Z,15.88
2022-11-16T00:36:44.604Z,15.80
2022-11-16T00:39:12.877Z,16.75
2022-11-16T00:41:40.064Z,16.23
2022-11-16T00:44:07.002Z,15.65
2022-11-16T00:46:33.626Z,16.73
2022-11-16T00:49:01.625Z,16.73
2022-11-16T00:51:31.729Z,15.52
2022-11-16T00:53:58.531Z,16.38
2022-11-16T00:56:25.330Z,15.48
2022-11-16T00:58:52.015Z,16.33
2022-11-16T01:01:19.048Z,16.15
2022-11-16T01:03:46.050Z,16.85
2022-11-16T01:06:14.383Z,16.10
2022-11-16T01:08:42.336Z,16.15
2022-11-16T01:11:28.618Z,16.15
2022-11-16T01:13:55.652Z,16.55
2022-11-16T01:16:23.368Z,16.70
2022-11-16T01:18:54.949Z,16.45
2022-11-16T01:21:23.011Z,17.00
2022-11-16T01:23:50.412Z,16.00
2022-11-16T01:26:17.391Z,16.60
2022-11-16T01:28:44.473Z,16.40
2022-11-16T01:31:12.557Z,16.75
2022-11-16T01:33:40.648Z,15.98
2022-11-16T01:36:14.816Z,16.30
2022-11-16T01:38:43.769Z,16.83
2022-11-16T01:41:16.401Z,16.38
2022-11-16T01:44:05.738Z,16.45
2022-11-16T01:46:38.607Z,17.35
2022-11-16T01:49:20.421Z,17.67
2022-11-16T01:51:53.441Z,17.65
2022-11-16T01:54:21.048Z,18.17
2022-11-16T01:57:02.955Z,17.63
2022-11-16T01:59:39.155Z,17.08
2022-11-16T02:02:09.481Z,17.75
2022-11-16T02:04:36.273Z,18.67
2022-11-16T02:08:18.039Z,18.33
2022-11-16T02:11:24.807Z,19.45
2022-11-16T02:14:27.127Z,18.75
2022-11-16T02:17:09.724Z,18.58
2022-11-16T02:20:03.378Z,18.85
2022-11-16T02:22:44.322Z,18.83
2022-11-16T02:25:23.218Z,19.50
2022-11-16T02:28:00.440Z,19.90
2022-11-16T02:30:27.111Z,19.70
2022-11-16T02:33:18.370Z,18.38
2022-11-16T02:35:50.404Z,18.95
2022-11-16T02:38:27.902Z,18.00
2022-11-16T02:41:01.702Z,19.30
2022-11-16T02:43:57.451Z,19.23
2022-11-16T02:46:36.073Z,19.95
2022-11-16T02:49:11.383Z,18.77
2022-11-16T02:51:40.798Z,18.40
2022-11-16T02:54:08.588Z,19.55
2022-11-16T02:57:03.638Z,18.27
2022-11-16T02:59:42.750Z,18.13
2022-11-16T03:02:37.302Z,18.48
2022-11-16T03:05:17.144Z,18.85
2022-11-16T03:08:29.441Z,17.33
2022-11-16T03:11:21.649Z,17.75
2022-11-16T03:13:49.879Z,17.50
2022-11-16T03:16:25.267Z,19.48
2022-11-16T03:18:55.548Z,18.42
2022-11-16T03:21:44.392Z,17.73
2022-11-16T03:24:13.470Z,17.33
2022-11-16T03:27:05.498Z,17.33
2022-11-16T03:29:39.024Z,17.42
2022-11-16T03:32:19.097Z,16.50
2022-11-16T03:34:56.305Z,17.02
2022-11-16T03:37:25.356Z,17.60
2022-11-16T03:39:54.681Z,17.67
2022-11-16T03:42:24.727Z,17.70
2022-11-16T03:44:52.448Z,17.95
2022-11-16T03:47:19.076Z,17.35
2022-11-16T03:49:46.656Z,17.48
2022-11-16T03:52:17.331Z,17.25
2022-11-16T03:54:44.351Z,18.05
2022-11-16T03:57:18.629Z,18.08
2022-11-16T03:59:51.162Z,16.90
2022-11-16T04:02:17.811Z,18.70
2022-11-16T04:05:03.408Z,17.25
2022-11-16T04:07:48.675Z,18.20
2022-11-16T04:10:34.127Z,18.02
2022-11-16T04:13:40.490Z,18.33
2022-11-16T04:16:27.816Z,17.90
2022-11-16T04:19:13.100Z,18.85
2022-11-16T04:22:03.555Z,18.42
2022-11-16T04:24:38.197Z,17.67
2022-11-16T04:27:27.804Z,19.08
2022-11-16T04:29:56.631Z,18.65
2022-11-16T04:32:42.597Z,18.02
2022-11-16T04:35:27.743Z,18.17
2022-11-16T04:37:58.503Z,17.92
2022-11-16T04:40:32.073Z,17.75
2022-11-16T04:43:01.405Z,17.42
2022-11-16T04:45:51.168Z,17.85
2022-11-16T04:48:20.975Z,17.95
2022-11-16T04:50:51.037Z,18.85
2022-11-16T04:53:18.111Z,17.15
2022-11-16T04:55:51.068Z,17.60
2022-11-16T04:58:19.988Z,18.15
2022-11-16T05:00:47.856Z,18.10
2022-11-16T05:03:14.592Z,16.75
2022-11-16T05:05:42.038Z,17.98
2022-11-16T05:08:09.295Z,16.30
2022-11-16T05:10:37.366Z,17.80
2022-11-16T05:13:04.124Z,16.67
2022-11-16T05:15:30.831Z,17.13
2022-11-16T05:17:59.096Z,17.02
2022-11-16T05:20:44.855Z,17.75
2022-11-16T05:23:32.287Z,16.98
2022-11-16T05:26:04.434Z,17.38
2022-11-16T05:28:31.202Z,16.33
2022-11-16T05:30:58.089Z,16.48
2022-11-16T05:33:26.975Z,16.38
2022-11-16T05:35:53.752Z,16.58
2022-11-16T05:38:21.311Z,16.27
2022-11-16T05:40:51.834Z,16.40
2022-11-16T05:43:18.446Z,16.75
2022-11-16T05:48:33.101Z,18.88
2022-11-16T05:51:00.507Z,16.85
2022-11-16T05:53:30.534Z,16.95
2022-11-16T05:55:58.597Z,17.08
2022-11-16T05:58:25.212Z,17.13
2022-11-16T06:00:52.274Z,16.17
2022-11-16T06:03:19.836Z,16.90
2022-11-16T06:05:46.734Z,16.48
2022-11-16T06:08:16.193Z,16.63
2022-11-16T06:10:42.822Z,16.33
2022-11-16T06:13:09.543Z,15.32
2022-11-16T06:15:39.630Z,16.55
2022-11-16T06:18:08.700Z,15.95
2022-11-16T06:20:38.388Z,16.17
2022-11-16T06:23:06.042Z,15.77
2022-11-16T06:25:33.444Z,16.23
2022-11-16T06:28:05.234Z,16.95
2022-11-16T06:30:34.739Z,16.45
2022-11-16T06:33:02.786Z,16.58
2022-11-16T06:35:29.536Z,18.05
2022-11-16T06:37:58.207Z,18.13
2022-11-16T06:40:25.778Z,18.30
2022-11-16T06:42:52.631Z,19.52
2022-11-16T06:45:19.499Z,18.60
2022-11-16T06:47:50.597Z,18.75
2022-11-16T06:50:19.294Z,18.15
2022-11-16T06:52:47.592Z,18.58
2022-11-16T06:55:16.324Z,18.48
2022-11-16T06:57:43.966Z,18.00
2022-11-16T07:00:11.165Z,18.85
2022-11-16T07:02:38.778Z,18.50
2022-11-16T07:05:08.106Z,17.88
2022-11-16T07:07:34.995Z,19.08
2022-11-16T07:10:02.469Z,17.42
2022-11-16T07:12:30.714Z,17.52
2022-11-16T07:15:01.323Z,18.85
2022-11-16T07:17:30.573Z,17.73
2022-11-16T07:19:57.870Z,18.15
2022-11-16T07:22:24.557Z,19.05
2022-11-16T07:24:51.960Z,18.38
2022-11-16T07:27:20.313Z,18.80
2022-11-16T07:29:49.979Z,20.00
2022-11-16T07:32:35.780Z,19.58
2022-11-16T07:35:13.801Z,19.80
2022-11-16T07:37:40.423Z,19.35
2022-11-16T07:40:08.752Z,18.58
2022-11-16T07:42:36.769Z,19.83
2022-11-16T07:45:22.007Z,19.58
2022-11-16T07:47:53.743Z,20.25
2022-11-16T07:50:43.496Z,18.50
2022-11-16T07:53:10.708Z,20.20
2022-11-16T07:55:39.074Z,20.52
2022-11-16T07:58:06.103Z,20.10
2022-11-16T08:00:32.785Z,19.05
2022-11-16T08:03:08.386Z,19.88
2022-11-16T08:05:36.120Z,20.63
2022-11-16T08:08:02.885Z,20.33
2022-11-16T08:10:31.610Z,19.20
2022-11-16T08:12:59.439Z,18.73
2022-11-16T08:15:26.634Z,18.00
2022-11-16T08:17:53.311Z,19.05
2022-11-16T08:20:20.186Z,19.15
2022-11-16T08:22:49.771Z,18.70
2022-11-16T08:25:16.507Z,19.25
2022-11-16T08:27:43.942Z,19.35
2022-11-16T08:30:11.845Z,20.58
2022-11-16T08:32:39.340Z,19.48
2022-11-16T08:35:06.649Z,19.77
2022-11-16T08:37:34.021Z,19.80
2022-11-16T08:40:00.775Z,19.63
2022-11-16T08:42:28.035Z,20.20
2022-11-16T08:44:54.693Z,19.02
2022-11-16T08:47:21.404Z,20.08
2022-11-16T08:49:53.641Z,20.52
2022-11-16T08:52:21.857Z,21.33
2022-11-16T08:54:50.419Z,20.35
2022-11-16T08:57:17.410Z,18.85
2022-11-16T08:59:46.889Z,21.27
2022-11-16T09:02:14.166Z,21.00
2022-11-16T09:04:40.869Z,21.45
2022-11-16T09:07:07.505Z,20.45
2022-11-16T09:09:34.313Z,21.20
2022-11-16T09:12:00.990Z,21.30
2022-11-16T09:14:29.010Z,21.67
2022-11-16T09:16:55.671Z,19.10
2022-11-16T09:19:22.558Z,22.48
2022-11-16T09:21:50.416Z,22.58
2022-11-16T09:24:17.281Z,21.92
2022-11-16T09:26:44.009Z,22.40
2022-11-16T09:29:14.937Z,21.95
2022-11-16T09:31:42.074Z,22.27
2022-11-16T09:34:08.728Z,22.25
2022-11-16T09:36:35.432Z,22.23
2022-11-16T09:39:29.523Z,21.65
2022-11-16T09:42:02.091Z,22.83
2022-11-16T09:44:58.743Z,21.92
2022-11-16T09:47:49.182Z,23.63
2022-11-16T09:50:22.709Z,23.38
2022-11-16T09:52:55.511Z,23.15
2022-11-16T09:55:32.134Z,23.15
2022-11-16T09:58:02.103Z,22.83
2022-11-16T10:00:30.625Z,23.10
2022-11-16T10:03:11.007Z,22.83
2022-11-16T10:05:48.601Z,24.02
2022-11-16T10:08:23.163Z,21.85
2022-11-16T10:11:05.434Z,22.88
2022-11-16T10:13:57.054Z,24.02
2022-11-16T10:16:49.073Z,23.40
2022-11-16T10:19:30.770Z,24.17
2022-11-16T10:22:18.201Z,22.92
2022-11-16T10:24:57.454Z,23.35
2022-11-16T10:27:38.203Z,23.25
2022-11-16T10:30:19.984Z,23.20
2022-11-16T10:33:02.832Z,23.70
2022-11-16T10:35:37.258Z,22.40
2022-11-16T10:38:14.550Z,22.50
2022-11-16T10:40:41.522Z,24.13
2022-11-16T10:43:15.071Z,23.70
2022-11-16T10:46:09.214Z,22.83
2022-11-16T10:49:27.190Z,23.98
2022-11-16T10:51:53.981Z,24.05
2022-11-16T10:54:20.590Z,22.80
2022-11-16T10:56:49.670Z,22.83
2022-11-16T10:59:19.176Z,23.80
2022-11-16T11:01:51.055Z,22.25
2022-11-16T11:04:26.270Z,23.63
2022-11-16T11:07:01.678Z,25.10
2022-11-16T11:09:34.311Z,23.92
2022-11-16T11:12:34.246Z,24.73
2022-11-16T11:15:25.876Z,24.40
2022-11-16T11:18:11.697Z,23.55
2022-11-16T11:20:44.864Z,24.38
2022-11-16T11:23:15.865Z,23.77
2022-11-16T11:25:49.745Z,23.63
2022-11-16T11:28:19.454Z,22.60
2022-11-16T11:31:04.114Z,22.38
2022-11-16T11:33:48.548Z,23.98
2022-11-16T11:36:27.084Z,23.98
2022-11-16T11:39:07.838Z,22.48
2022-11-16T11:41:38.927Z,22.63
2022-11-16T11:44:31.764Z,23.08
2022-11-16T11:50:11.078Z,23.50
2022-11-16T11:52:42.582Z,23.48
2022-11-16T11:55:17.768Z,23.25
2022-11-16T11:57:47.791Z,22.83
2022-11-16T12:00:15.619Z,23.52
2022-11-16T12:03:06.377Z,24.02
2022-11-16T12:06:06.374Z,23.83
2022-11-16T12:08:51.280Z,25.10
2022-11-16T12:11:36.316Z,25.27
2022-11-16T12:14:17.817Z,25.50
2022-11-16T12:16:53.176Z,24.83
2022-11-16T12:19:19.726Z,24.63
2022-11-16T12:21:55.258Z,23.60
2022-11-16T12:24:28.098Z,25.60
2022-11-16T12:27:00.795Z,25.00
2022-11-16T12:29:27.431Z,23.80
2022-11-16T12:32:09.176Z,23.25
2022-11-16T12:34:54.779Z,24.73
2022-11-16T12:37:37.316Z,23.27
2022-11-16T12:40:10.017Z,21.88
2022-11-16T12:42:45.735Z,22.50
2022-11-16T12:45:32.546Z,22.55
2022-11-16T12:48:18.147Z,25.00
2022-11-16T12:51:32.192Z,24.42
2022-11-16T12:54:19.968Z,23.15
2022-11-16T12:56:49.057Z,24.27
2022-11-16T13:00:14.307Z,23.20
2022-11-16T13:03:04.183Z,23.75
2022-11-16T13:05:42.712Z,26.08
2022-11-16T13:08:21.364Z,24.58
2022-11-16T13:10:50.555Z,24.17
2022-11-16T13:13:51.357Z,23.40
2022-11-16T13:16:17.357Z,22.55
2022-11-16T13:18:44.766Z,22.30
2022-11-16T13:21:37.642Z,22.00
2022-11-16T13:24:16.623Z,22.65
2022-11-16T13:26:55.898Z,23.20
2022-11-16T13:29:30.301Z,22.85
2022-11-16T13:32:00.440Z,22.00
2022-11-16T13:34:37.576Z,21.35
2022-11-16T13:37:39.721Z,21.83
2022-11-16T13:40:06.343Z,20.95
2022-11-16T13:42:57.422Z,22.00
2022-11-16T13:45:26.210Z,20.75
2022-11-16T13:47:55.582Z,20.73
2022-11-16T13:50:37.216Z,22.70
2022-11-16T13:56:05.195Z,22.15
2022-11-16T13:58:33.876Z,21.98
2022-11-16T14:01:10.688Z,22.00
2022-11-16T14:03:42.689Z,21.77
2022-11-16T14:06:24.626Z,21.65
2022-11-16T14:08:55.326Z,21.95
2022-11-16T14:11:38.165Z,23.08
2022-11-16T14:14:09.627Z,22.95
2022-11-16T14:16:50.735Z,21.67
2022-11-16T14:19:49.097Z,21.65
2022-11-16T14:22:41.766Z,21.02
2022-11-16T14:25:37.563Z,21.25
2022-11-16T14:28:38.785Z,20.88
2022-11-16T14:31:27.605Z,20.55
2022-11-16T14:33:59.938Z,19.70
2022-11-16T14:36:41.665Z,19.55
2022-11-16T14:39:37.437Z,21.00
2022-11-16T14:42:17.706Z,20.70
2022-11-16T14:44:44.770Z,19.92
2022-11-16T14:47:34.059Z,18.80
2022-11-16T14:50:00.727Z,20.50
2022-11-16T14:52:34.450Z,18.50
2022-11-16T14:55:07.119Z,19.27
2022-11-16T14:57:34.157Z,19.00
2022-11-16T15:00:18.926Z,20.65
2022-11-16T15:02:55.290Z,20.40
2022-11-16T15:05:29.592Z,19.80
2022-11-16T15:07:59.404Z,20.02
2022-11-16T15:10:28.582Z,20.05
2022-11-16T15:12:56.958Z,20.55
2022-11-16T15:15:31.357Z,19.10
2022-11-16T15:18:03.935Z,18.70
2022-11-16T15:20:36.725Z,18.77
2022-11-16T15:23:12.277Z,18.08
2022-11-16T15:25:56.636Z,17.50
2022-11-16T15:28:30.231Z,18.10
2022-11-16T15:31:02.388Z,16.20
2022-11-16T15:33:36.368Z,15.88
2022-11-16T15:36:21.824Z,15.70
2022-11-16T15:38:50.446Z,14.70
2022-11-16T15:41:18.465Z,14.10
2022-11-16T15:44:12.525Z,13.82
2022-11-16T15:46:38.529Z,12.18
2022-11-16T15:49:30.233Z,12.45
2022-11-16T15:52:01.003Z,12.02
2022-11-16T15:54:28.876Z,10.07
2022-11-16T15:56:58.532Z,9.95
2022-11-16T15:59:29.906Z,9.45
2022-11-16T16:01:56.809Z,9.20
2022-11-16T16:04:25.597Z,9.52
2022-11-16T16:06:57.221Z,10.52
2022-11-16T16:09:36.875Z,9.10
2022-11-16T16:12:15.779Z,9.05
2022-11-16T16:14:42.674Z,9.48
2022-11-16T16:17:11.627Z,9.38
2022-11-16T16:19:40.910Z,8.55
2022-11-16T16:22:15.433Z,9.10
2022-11-16T16:24:45.377Z,9.40
2022-11-16T16:27:17.908Z,9.10
2022-11-16T16:29:46.753Z,9.05
2022-11-16T16:32:25.223Z,8.70
2022-11-16T16:34:53.915Z,8.18
2022-11-16T16:37:20.688Z,8.57
2022-11-16T16:39:47.315Z,8.73
2022-11-16T16:42:16.331Z,8.70
2022-11-16T16:44:44.254Z,8.48
2022-11-16T16:47:11.184Z,8.27
2022-11-16T16:49:38.090Z,9.15
2022-11-16T16:52:05.957Z,9.13
2022-11-16T16:54:32.957Z,9.32
2022-11-16T16:57:01.413Z,9.23
2022-11-16T16:59:29.934Z,9.20
2022-11-16T17:01:57.829Z,9.43
2022-11-16T17:04:24.966Z,9.43
2022-11-16T17:06:52.922Z,9.05
2022-11-16T17:09:20.064Z,9.70
2022-11-16T17:11:47.569Z,9.73
2022-11-16T17:14:14.307Z,9.70
2022-11-16T17:16:41.048Z,9.65
2022-11-16T17:19:07.683Z,10.07
2022-11-16T17:21:34.252Z,9.93
2022-11-16T17:24:01.036Z,9.48
2022-11-16T17:26:29.520Z,9.63
2022-11-16T17:28:57.652Z,10.13
2022-11-16T17:31:25.843Z,10.77
2022-11-16T17:33:52.779Z,9.98
2022-11-16T17:36:19.892Z,9.65
2022-11-16T17:38:46.783Z,10.35
2022-11-16T17:41:18.506Z,10.25
2022-11-16T17:43:46.408Z,10.25
2022-11-16T17:46:15.861Z,9.65
2022-11-16T17:48:44.638Z,8.88
2022-11-16T17:51:13.422Z,9.75
2022-11-16T17:53:40.879Z,9.60
2022-11-16T17:56:07.961Z,9.57
2022-11-16T17:58:34.784Z,9.70
2022-11-16T18:01:01.518Z,9.88
2022-11-16T18:03:31.228Z,9.80
2022-11-16T18:06:06.075Z,10.35
2022-11-16T18:08:33.471Z,10.10
2022-11-16T18:11:11.164Z,10.05
2022-11-16T18:13:38.181Z,9.73
2022-11-16T18:16:17.405Z,9.25
2022-11-16T18:18:46.007Z,10.18
2022-11-16T18:21:20.032Z,9.75
2022-11-16T18:23:47.520Z,10.05
2022-11-16T18:26:17.789Z,8.82
2022-11-16T18:28:45.334Z,9.30
2022-11-16T18:31:15.653Z,9.45
2022-11-16T18:33:42.888Z,9.63
2022-11-16T18:36:10.803Z,10.15
2022-11-16T18:38:37.709Z,9.30
2022-11-16T18:41:13.456Z,9.30
2022-11-16T18:43:40.463Z,9.27
2022-11-16T18:46:07.841Z,9.30
2022-11-16T18:48:34.514Z,11.57
2022-11-16T18:51:03.214Z,10.43
2022-11-16T18:53:31.237Z,9.20
2022-11-16T18:55:58.510Z,11.00
2022-11-16T19:01:16.101Z,9.52
2022-11-16T19:03:43.235Z,9.38
2022-11-16T19:06:10.888Z,9.05
2022-11-16T19:08:39.283Z,9.18
2022-11-16T19:11:11.955Z,8.82
2022-11-16T19:13:43.099Z,9.10
2022-11-16T19:16:11.983Z,8.55
2022-11-16T19:18:38.743Z,9.18
2022-11-16T19:21:07.176Z,9.27
2022-11-16T19:23:42.816Z,9.10
2022-11-16T19:26:12.176Z,8.93
2022-11-16T19:28:43.333Z,8.38
2022-11-16T19:31:12.524Z,7.75
2022-11-16T19:33:39.913Z,8.70
2022-11-16T19:36:12.187Z,7.22
2022-11-16T19:38:39.395Z,6.80
2022-11-16T19:41:07.771Z,7.32
2022-11-16T19:43:34.745Z,7.00
2022-11-16T19:46:06.257Z,6.82
2022-11-16T19:48:33.276Z,7.30
2022-11-16T19:51:06.420Z,6.65
2022-11-16T19:53:33.775Z,6.45
2022-11-16T19:56:00.809Z,6.68
2022-11-16T19:58:27.938Z,5.97
2022-11-16T20:01:07.467Z,5.53
2022-11-16T20:03:34.903Z,5.28
2022-11-16T20:06:09.027Z,5.18
2022-11-16T20:08:36.995Z,5.20
2022-11-16T20:11:15.555Z,5.40
2022-11-16T20:13:42.659Z,5.18
2022-11-16T20:16:11.379Z,5.03
2022-11-16T20:18:39.912Z,5.13
2022-11-16T20:21:07.651Z,4.45
2022-11-16T20:23:35.639Z,4.68
2022-11-16T20:26:10.358Z,4.50
2022-11-16T20:28:39.028Z,4.88
2022-11-16T20:31:11.742Z,3.97
2022-11-16T20:33:38.675Z,4.03
2022-11-16T20:36:08.100Z,4.60
2022-11-16T20:38:36.519Z,4.40
2022-11-16T20:41:13.895Z,4.00
2022-11-16T20:43:42.182Z,4.07
2022-11-16T20:46:10.610Z,3.92
2022-11-16T20:48:38.170Z,4.47
2022-11-16T20:51:05.452Z,4.15
2022-11-16T20:53:33.261Z,4.65
2022-11-16T20:56:03.762Z,4.18
2022-11-16T20:58:31.321Z,4.30
2022-11-16T21:01:05.742Z,3.92
2022-11-16T21:03:33.155Z,4.45
2022-11-16T21:06:00.141Z,3.97
2022-11-16T21:08:27.341Z,4.38
2022-11-16T21:10:54.230Z,4.60
2022-11-16T21:13:40.179Z,4.22
2022-11-16T21:16:11.460Z,5.20
2022-11-16T21:18:39.531Z,4.85
2022-11-16T21:21:13.181Z,4.35
2022-11-16T21:23:43.135Z,4.57
2022-11-16T21:26:15.130Z,4.50
2022-11-16T21:28:44.730Z,4.07
2022-11-16T21:31:17.897Z,4.18
2022-11-16T21:33:45.310Z,4.57
2022-11-16T21:36:14.748Z,3.75
2022-11-16T21:38:41.904Z,4.32
2022-11-16T21:41:10.233Z,3.97
2022-11-16T21:43:37.777Z,3.95
2022-11-16T21:46:10.827Z,3.50
2022-11-16T21:48:37.962Z,4.03
2022-11-16T21:51:07.740Z,3.40
2022-11-16T21:53:35.384Z,3.10
2022-11-16T21:56:03.453Z,3.45
2022-11-16T21:58:30.157Z,3.20
2022-11-16T22:00:58.595Z,3.33
2022-11-16T22:03:27.330Z,3.35
2022-11-16T22:06:17.677Z,3.13
2022-11-16T22:08:45.189Z,3.10
2022-11-16T22:11:12.285Z,3.47
2022-11-16T22:13:39.770Z,2.88
2022-11-16T22:16:08.474Z,3.47
2022-11-16T22:18:35.458Z,3.22
2022-11-16T22:21:02.986Z,3.20
2022-11-16T22:23:30.558Z,2.70
2022-11-16T22:26:18.584Z,3.08
2022-11-16T22:28:45.194Z,3.10
2022-11-16T22:31:13.549Z,2.80
2022-11-16T22:33:40.213Z,2.60
2022-11-16T22:36:10.227Z,2.53
2022-11-16T22:38:37.486Z,2.50
2022-11-16T22:41:04.315Z,2.50
2022-11-16T22:43:32.300Z,2.58
2022-11-16T22:46:04.974Z,2.58
2022-11-16T22:48:37.316Z,2.50
2022-11-16T22:51:22.800Z,2.47
2022-11-16T22:54:00.485Z,2.20
2022-11-16T22:56:28.658Z,2.60
2022-11-16T22:58:55.779Z,2.25
2022-11-16T23:01:23.198Z,2.45
2022-11-16T23:03:50.128Z,2.70
2022-11-16T23:06:17.576Z,2.40
2022-11-16T23:08:44.465Z,2.65
2022-11-16T23:11:32.226Z,2.35
2022-11-16T23:14:18.628Z,2.70
2022-11-16T23:16:45.791Z,2.38
2022-11-16T23:19:33.027Z,2.28
2022-11-16T23:22:18.736Z,2.20
2022-11-16T23:25:04.437Z,2.38
2022-11-16T23:27:52.298Z,2.35
2022-11-16T23:30:18.968Z,2.42
2022-11-16T23:32:45.681Z,2.63
2022-11-16T23:35:13.138Z,2.60
2022-11-16T23:38:15.349Z,2.60
2022-11-16T23:40:42.022Z,2.42
2022-11-16T23:43:29.087Z,2.25
2022-11-16T23:45:55.833Z,2.45
2022-11-16T23:48:22.521Z,2.10
2022-11-16T23:50:49.126Z,2.45
2022-11-16T23:53:15.711Z,2.72
2022-11-16T23:55:42.338Z,2.30
2022-11-16T23:58:14.546Z,2.17
